sensor_id;sensor_type;location;lat;lon;timestamp;P1;durP1;ratioP1;P2;durP2;ratioP2
77202;SDS011;66327;50.096;8.498;2024-01-30T00:00:33;17.08;;;8.95;;
77202;SDS011;66327;50.096;8.498;2024-01-30T00:02:59;18.33;;;8.32;;
77202;SDS011;66327;50.096;8.498;2024-01-30T00:05:26;16.55;;;8.50;;
77202;SDS011;66327;50.096;8.498;2024-01-30T00:07:52;16.83;;;8.13;;
77202;SDS011;66327;50.096;8.498;2024-01-30T00:10:19;14.93;;;7.72;;
77202;SDS011;66327;50.096;8.498;2024-01-30T00:12:45;17.10;;;8.30;;
77202;SDS011;66327;50.096;8.498;2024-01-30T00:15:11;16.23;;;9.00;;
77202;SDS011;66327;50.096;8.498;2024-01-30T00:17:38;18.13;;;8.65;;
77202;SDS011;66327;50.096;8.498;2024-01-30T00:20:04;17.63;;;8.13;;
77202;SDS011;66327;50.096;8.498;2024-01-30T00:22:35;15.65;;;7.95;;
77202;SDS011;66327;50.096;8.498;2024-01-30T00:25:02;16.58;;;7.80;;
77202;SDS011;66327;50.096;8.498;2024-01-30T00:27:29;17.58;;;8.27;;
77202;SDS011;66327;50.096;8.498;2024-01-30T00:29:55;17.15;;;8.40;;
77202;SDS011;66327;50.096;8.498;2024-01-30T00:32:21;14.90;;;7.78;;
77202;SDS011;66327;50.096;8.498;2024-01-30T00:34:49;15.10;;;7.93;;
77202;SDS011;66327;50.096;8.498;2024-01-30T00:37:16;17.00;;;8.07;;
77202;SDS011;66327;50.096;8.498;2024-01-30T00:39:42;17.50;;;8.35;;
77202;SDS011;66327;50.096;8.498;2024-01-30T00:42:09;11.98;;;6.43;;
77202;SDS011;66327;50.096;8.498;2024-01-30T00:44:35;16.08;;;7.47;;
77202;SDS011;66327;50.096;8.498;2024-01-30T00:47:04;13.38;;;7.57;;
77202;SDS011;66327;50.096;8.498;2024-01-30T00:49:31;16.70;;;7.45;;
77202;SDS011;66327;50.096;8.498;2024-01-30T00:51:57;13.73;;;7.38;;
77202;SDS011;66327;50.096;8.498;2024-01-30T00:54:23;16.08;;;8.07;;
77202;SDS011;66327;50.096;8.498;2024-01-30T00:56:50;17.00;;;8.05;;
77202;SDS011;66327;50.096;8.498;2024-01-30T00:59:16;13.70;;;7.35;;
77202;SDS011;66327;50.096;8.498;2024-01-30T01:01:42;16.75;;;8.00;;
77202;SDS011;66327;50.096;8.498;2024-01-30T01:04:09;11.65;;;6.57;;
77202;SDS011;66327;50.096;8.498;2024-01-30T01:06:35;15.02;;;8.45;;
77202;SDS011;66327;50.096;8.498;2024-01-30T01:09:02;14.57;;;7.88;;
77202;SDS011;66327;50.096;8.498;2024-01-30T01:11:30;16.45;;;8.23;;
77202;SDS011;66327;50.096;8.498;2024-01-30T01:13:57;18.25;;;8.10;;
77202;SDS011;66327;50.096;8.498;2024-01-30T01:16:24;12.88;;;7.25;;
77202;SDS011;66327;50.096;8.498;2024-01-30T01:18:50;17.45;;;8.30;;
77202;SDS011;66327;50.096;8.498;2024-01-30T01:21:17;14.48;;;7.63;;
77202;SDS011;66327;50.096;8.498;2024-01-30T01:23:43;16.20;;;7.53;;
77202;SDS011;66327;50.096;8.498;2024-01-30T01:26:09;17.85;;;8.48;;
77202;SDS011;66327;50.096;8.498;2024-01-30T01:28:36;12.23;;;7.50;;
77202;SDS011;66327;50.096;8.498;2024-01-30T01:31:02;12.25;;;7.38;;
77202;SDS011;66327;50.096;8.498;2024-01-30T01:33:32;12.73;;;6.93;;
77202;SDS011;66327;50.096;8.498;2024-01-30T01:35:59;12.25;;;6.47;;
77202;SDS011;66327;50.096;8.498;2024-01-30T01:38:26;14.73;;;7.40;;
77202;SDS011;66327;50.096;8.498;2024-01-30T01:40:52;14.15;;;7.20;;
77202;SDS011;66327;50.096;8.498;2024-01-30T01:43:18;12.27;;;6.63;;
77202;SDS011;66327;50.096;8.498;2024-01-30T01:45:45;12.05;;;6.82;;
77202;SDS011;66327;50.096;8.498;2024-01-30T01:48:11;17.05;;;7.07;;
77202;SDS011;66327;50.096;8.498;2024-01-30T01:50:38;13.63;;;6.65;;
77202;SDS011;66327;50.096;8.498;2024-01-30T01:53:06;16.85;;;7.75;;
77202;SDS011;66327;50.096;8.498;2024-01-30T01:55:34;16.92;;;7.75;;
77202;SDS011;66327;50.096;8.498;2024-01-30T01:58:01;11.07;;;7.22;;
77202;SDS011;66327;50.096;8.498;2024-01-30T02:00:27;13.10;;;7.35;;
77202;SDS011;66327;50.096;8.498;2024-01-30T02:02:54;13.80;;;8.50;;
77202;SDS011;66327;50.096;8.498;2024-01-30T02:05:21;18.08;;;7.97;;
77202;SDS011;66327;50.096;8.498;2024-01-30T02:07:47;13.98;;;6.53;;
77202;SDS011;66327;50.096;8.498;2024-01-30T02:10:14;14.43;;;7.72;;
77202;SDS011;66327;50.096;8.498;2024-01-30T02:12:42;15.52;;;7.00;;
77202;SDS011;66327;50.096;8.498;2024-01-30T02:15:08;13.57;;;6.70;;
77202;SDS011;66327;50.096;8.498;2024-01-30T02:17:34;17.08;;;6.68;;
77202;SDS011;66327;50.096;8.498;2024-01-30T02:20:01;13.23;;;6.90;;
77202;SDS011;66327;50.096;8.498;2024-01-30T02:22:27;15.88;;;7.45;;
77202;SDS011;66327;50.096;8.498;2024-01-30T02:24:54;13.85;;;7.50;;
77202;SDS011;66327;50.096;8.498;2024-01-30T02:27:20;19.70;;;7.72;;
77202;SDS011;66327;50.096;8.498;2024-01-30T02:29:47;16.15;;;7.35;;
77202;SDS011;66327;50.096;8.498;2024-01-30T02:32:13;15.35;;;7.00;;
77202;SDS011;66327;50.096;8.498;2024-01-30T02:34:39;15.60;;;6.57;;
77202;SDS011;66327;50.096;8.498;2024-01-30T02:37:06;15.23;;;7.72;;
77202;SDS011;66327;50.096;8.498;2024-01-30T02:39:32;18.50;;;8.50;;
77202;SDS011;66327;50.096;8.498;2024-01-30T02:41:58;13.38;;;7.05;;
77202;SDS011;66327;50.096;8.498;2024-01-30T02:44:25;15.18;;;7.07;;
77202;SDS011;66327;50.096;8.498;2024-01-30T02:46:51;13.63;;;7.05;;
77202;SDS011;66327;50.096;8.498;2024-01-30T02:49:20;15.95;;;7.22;;
77202;SDS011;66327;50.096;8.498;2024-01-30T02:51:47;14.60;;;7.65;;
77202;SDS011;66327;50.096;8.498;2024-01-30T02:54:13;14.77;;;7.28;;
77202;SDS011;66327;50.096;8.498;2024-01-30T02:56:39;13.98;;;7.47;;
77202;SDS011;66327;50.096;8.498;2024-01-30T02:59:06;14.40;;;7.63;;
77202;SDS011;66327;50.096;8.498;2024-01-30T03:01:32;12.48;;;7.32;;
77202;SDS011;66327;50.096;8.498;2024-01-30T03:03:59;15.32;;;8.07;;
77202;SDS011;66327;50.096;8.498;2024-01-30T03:06:25;17.58;;;8.00;;
77202;SDS011;66327;50.096;8.498;2024-01-30T03:08:51;15.32;;;7.18;;
77202;SDS011;66327;50.096;8.498;2024-01-30T03:11:18;14.18;;;5.82;;
77202;SDS011;66327;50.096;8.498;2024-01-30T03:13:44;12.65;;;6.53;;
77202;SDS011;66327;50.096;8.498;2024-01-30T03:16:11;15.23;;;7.70;;
77202;SDS011;66327;50.096;8.498;2024-01-30T03:18:37;17.95;;;7.80;;
77202;SDS011;66327;50.096;8.498;2024-01-30T03:21:04;15.82;;;7.13;;
77202;SDS011;66327;50.096;8.498;2024-01-30T03:23:30;13.50;;;7.50;;
77202;SDS011;66327;50.096;8.498;2024-01-30T03:25:58;18.98;;;7.75;;
77202;SDS011;66327;50.096;8.498;2024-01-30T03:28:24;14.80;;;6.72;;
77202;SDS011;66327;50.096;8.498;2024-01-30T03:30:51;13.25;;;7.22;;
77202;SDS011;66327;50.096;8.498;2024-01-30T03:33:17;12.60;;;6.55;;
77202;SDS011;66327;50.096;8.498;2024-01-30T03:35:44;12.68;;;6.90;;
77202;SDS011;66327;50.096;8.498;2024-01-30T03:38:11;19.33;;;7.03;;
77202;SDS011;66327;50.096;8.498;2024-01-30T03:40:37;12.32;;;6.63;;
77202;SDS011;66327;50.096;8.498;2024-01-30T03:43:03;14.65;;;7.07;;
77202;SDS011;66327;50.096;8.498;2024-01-30T03:45:31;13.90;;;7.03;;
77202;SDS011;66327;50.096;8.498;2024-01-30T03:47:57;16.30;;;6.32;;
77202;SDS011;66327;50.096;8.498;2024-01-30T03:50:24;13.85;;;7.13;;
77202;SDS011;66327;50.096;8.498;2024-01-30T03:52:50;12.82;;;6.13;;
77202;SDS011;66327;50.096;8.498;2024-01-30T03:55:17;14.18;;;6.30;;
77202;SDS011;66327;50.096;8.498;2024-01-30T03:57:43;12.18;;;6.28;;
77202;SDS011;66327;50.096;8.498;2024-01-30T04:00:10;14.48;;;6.55;;
77202;SDS011;66327;50.096;8.498;2024-01-30T04:02:36;11.23;;;5.75;;
77202;SDS011;66327;50.096;8.498;2024-01-30T04:05:02;14.15;;;6.53;;
77202;SDS011;66327;50.096;8.498;2024-01-30T04:07:29;14.48;;;6.57;;
77202;SDS011;66327;50.096;8.498;2024-01-30T04:09:56;12.60;;;5.88;;
77202;SDS011;66327;50.096;8.498;2024-01-30T04:12:22;11.43;;;6.13;;
77202;SDS011;66327;50.096;8.498;2024-01-30T04:14:48;12.00;;;6.43;;
77202;SDS011;66327;50.096;8.498;2024-01-30T04:17:15;12.27;;;6.35;;
77202;SDS011;66327;50.096;8.498;2024-01-30T04:19:41;15.27;;;7.10;;
77202;SDS011;66327;50.096;8.498;2024-01-30T04:22:08;15.13;;;7.07;;
77202;SDS011;66327;50.096;8.498;2024-01-30T04:24:34;13.57;;;6.30;;
77202;SDS011;66327;50.096;8.498;2024-01-30T04:27:00;12.63;;;7.60;;
77202;SDS011;66327;50.096;8.498;2024-01-30T04:29:27;11.32;;;6.93;;
77202;SDS011;66327;50.096;8.498;2024-01-30T04:31:53;14.75;;;7.03;;
77202;SDS011;66327;50.096;8.498;2024-01-30T04:34:19;12.10;;;6.50;;
77202;SDS011;66327;50.096;8.498;2024-01-30T04:36:46;14.90;;;7.40;;
77202;SDS011;66327;50.096;8.498;2024-01-30T04:39:12;14.07;;;6.88;;
77202;SDS011;66327;50.096;8.498;2024-01-30T04:41:39;14.65;;;7.43;;
77202;SDS011;66327;50.096;8.498;2024-01-30T04:44:05;16.73;;;6.72;;
77202;SDS011;66327;50.096;8.498;2024-01-30T04:46:33;12.93;;;7.00;;
77202;SDS011;66327;50.096;8.498;2024-01-30T04:49:00;15.85;;;7.07;;
77202;SDS011;66327;50.096;8.498;2024-01-30T04:51:27;15.88;;;6.60;;
77202;SDS011;66327;50.096;8.498;2024-01-30T04:53:53;12.43;;;5.90;;
77202;SDS011;66327;50.096;8.498;2024-01-30T04:56:19;13.07;;;6.43;;
77202;SDS011;66327;50.096;8.498;2024-01-30T04:58:46;14.05;;;7.30;;
77202;SDS011;66327;50.096;8.498;2024-01-30T05:01:15;15.05;;;7.30;;
77202;SDS011;66327;50.096;8.498;2024-01-30T05:03:42;12.45;;;7.13;;
77202;SDS011;66327;50.096;8.498;2024-01-30T05:06:09;13.88;;;6.68;;
77202;SDS011;66327;50.096;8.498;2024-01-30T05:08:35;12.73;;;6.85;;
77202;SDS011;66327;50.096;8.498;2024-01-30T05:11:04;14.43;;;6.35;;
77202;SDS011;66327;50.096;8.498;2024-01-30T05:13:31;11.07;;;6.28;;
77202;SDS011;66327;50.096;8.498;2024-01-30T05:15:57;16.05;;;6.85;;
77202;SDS011;66327;50.096;8.498;2024-01-30T05:18:24;12.98;;;6.18;;
77202;SDS011;66327;50.096;8.498;2024-01-30T05:20:51;16.70;;;6.97;;
77202;SDS011;66327;50.096;8.498;2024-01-30T05:23:17;14.70;;;7.10;;
77202;SDS011;66327;50.096;8.498;2024-01-30T05:25:44;15.32;;;7.03;;
77202;SDS011;66327;50.096;8.498;2024-01-30T05:28:10;13.95;;;6.78;;
77202;SDS011;66327;50.096;8.498;2024-01-30T05:30:36;15.57;;;6.85;;
77202;SDS011;66327;50.096;8.498;2024-01-30T05:33:03;14.32;;;7.38;;
77202;SDS011;66327;50.096;8.498;2024-01-30T05:35:30;14.15;;;6.60;;
77202;SDS011;66327;50.096;8.498;2024-01-30T05:37:56;14.57;;;7.20;;
77202;SDS011;66327;50.096;8.498;2024-01-30T05:40:22;13.82;;;6.72;;
77202;SDS011;66327;50.096;8.498;2024-01-30T05:42:49;11.63;;;7.03;;
77202;SDS011;66327;50.096;8.498;2024-01-30T05:45:15;17.42;;;7.22;;
77202;SDS011;66327;50.096;8.498;2024-01-30T05:47:41;13.05;;;7.72;;
77202;SDS011;66327;50.096;8.498;2024-01-30T05:50:08;15.32;;;8.15;;
77202;SDS011;66327;50.096;8.498;2024-01-30T05:52:34;16.33;;;7.57;;
77202;SDS011;66327;50.096;8.498;2024-01-30T05:55:01;13.90;;;7.53;;
77202;SDS011;66327;50.096;8.498;2024-01-30T05:57:28;14.82;;;7.45;;
77202;SDS011;66327;50.096;8.498;2024-01-30T05:59:55;18.60;;;7.93;;
77202;SDS011;66327;50.096;8.498;2024-01-30T06:02:21;20.73;;;10.88;;
77202;SDS011;66327;50.096;8.498;2024-01-30T06:04:48;16.33;;;7.95;;
77202;SDS011;66327;50.096;8.498;2024-01-30T06:07:15;22.58;;;9.52;;
77202;SDS011;66327;50.096;8.498;2024-01-30T06:09:41;15.68;;;7.47;;
77202;SDS011;66327;50.096;8.498;2024-01-30T06:12:08;15.23;;;7.88;;
77202;SDS011;66327;50.096;8.498;2024-01-30T06:14:34;15.02;;;8.43;;
77202;SDS011;66327;50.096;8.498;2024-01-30T06:17:01;15.95;;;8.57;;
77202;SDS011;66327;50.096;8.498;2024-01-30T06:19:27;14.05;;;7.57;;
77202;SDS011;66327;50.096;8.498;2024-01-30T06:21:54;21.27;;;7.35;;
77202;SDS011;66327;50.096;8.498;2024-01-30T06:24:20;16.67;;;7.55;;
77202;SDS011;66327;50.096;8.498;2024-01-30T06:26:46;16.45;;;8.13;;
77202;SDS011;66327;50.096;8.498;2024-01-30T06:29:13;20.80;;;8.40;;
77202;SDS011;66327;50.096;8.498;2024-01-30T06:31:44;15.77;;;8.27;;
77202;SDS011;66327;50.096;8.498;2024-01-30T06:34:11;19.98;;;7.28;;
77202;SDS011;66327;50.096;8.498;2024-01-30T06:36:38;16.00;;;7.18;;
77202;SDS011;66327;50.096;8.498;2024-01-30T06:39:04;14.07;;;7.60;;
77202;SDS011;66327;50.096;8.498;2024-01-30T06:41:31;18.20;;;8.32;;
77202;SDS011;66327;50.096;8.498;2024-01-30T06:43:58;15.35;;;8.05;;
77202;SDS011;66327;50.096;8.498;2024-01-30T06:46:24;18.48;;;9.20;;
77202;SDS011;66327;50.096;8.498;2024-01-30T06:48:51;17.75;;;8.00;;
77202;SDS011;66327;50.096;8.498;2024-01-30T06:51:17;15.18;;;7.80;;
77202;SDS011;66327;50.096;8.498;2024-01-30T06:53:43;14.73;;;7.70;;
77202;SDS011;66327;50.096;8.498;2024-01-30T06:56:10;18.13;;;8.15;;
77202;SDS011;66327;50.096;8.498;2024-01-30T06:58:37;14.50;;;8.70;;
77202;SDS011;66327;50.096;8.498;2024-01-30T07:01:08;15.13;;;8.35;;
77202;SDS011;66327;50.096;8.498;2024-01-30T07:03:40;16.08;;;7.93;;
77202;SDS011;66327;50.096;8.498;2024-01-30T07:06:06;15.85;;;8.68;;
77202;SDS011;66327;50.096;8.498;2024-01-30T07:08:33;16.40;;;8.32;;
77202;SDS011;66327;50.096;8.498;2024-01-30T07:10:59;16.88;;;8.82;;
77202;SDS011;66327;50.096;8.498;2024-01-30T07:13:27;14.10;;;7.30;;
77202;SDS011;66327;50.096;8.498;2024-01-30T07:15:54;14.82;;;8.80;;
77202;SDS011;66327;50.096;8.498;2024-01-30T07:18:20;18.70;;;9.15;;
77202;SDS011;66327;50.096;8.498;2024-01-30T07:20:47;17.98;;;8.73;;
77202;SDS011;66327;50.096;8.498;2024-01-30T07:23:14;19.65;;;8.65;;
77202;SDS011;66327;50.096;8.498;2024-01-30T07:25:43;15.27;;;7.82;;
77202;SDS011;66327;50.096;8.498;2024-01-30T07:28:11;18.80;;;9.18;;
77202;SDS011;66327;50.096;8.498;2024-01-30T07:30:43;16.25;;;8.80;;
77202;SDS011;66327;50.096;8.498;2024-01-30T07:33:09;17.85;;;8.68;;
77202;SDS011;66327;50.096;8.498;2024-01-30T07:35:36;15.82;;;8.68;;
77202;SDS011;66327;50.096;8.498;2024-01-30T07:38:02;15.95;;;8.73;;
77202;SDS011;66327;50.096;8.498;2024-01-30T07:40:29;20.98;;;9.25;;
77202;SDS011;66327;50.096;8.498;2024-01-30T07:42:56;18.10;;;9.07;;
77202;SDS011;66327;50.096;8.498;2024-01-30T07:45:22;17.50;;;9.32;;
77202;SDS011;66327;50.096;8.498;2024-01-30T07:47:51;18.60;;;9.75;;
77202;SDS011;66327;50.096;8.498;2024-01-30T07:50:17;18.25;;;9.00;;
77202;SDS011;66327;50.096;8.498;2024-01-30T07:52:45;15.40;;;8.25;;
77202;SDS011;66327;50.096;8.498;2024-01-30T07:55:11;21.48;;;9.07;;
77202;SDS011;66327;50.096;8.498;2024-01-30T07:57:38;16.88;;;8.48;;
77202;SDS011;66327;50.096;8.498;2024-01-30T08:00:05;18.33;;;9.35;;
77202;SDS011;66327;50.096;8.498;2024-01-30T08:02:33;15.25;;;8.07;;
77202;SDS011;66327;50.096;8.498;2024-01-30T08:04:59;17.15;;;8.35;;
77202;SDS011;66327;50.096;8.498;2024-01-30T08:07:26;18.80;;;9.43;;
77202;SDS011;66327;50.096;8.498;2024-01-30T08:09:55;20.00;;;9.70;;
77202;SDS011;66327;50.096;8.498;2024-01-30T08:12:22;22.02;;;9.82;;
77202;SDS011;66327;50.096;8.498;2024-01-30T08:14:48;22.40;;;10.93;;
77202;SDS011;66327;50.096;8.498;2024-01-30T08:17:15;20.63;;;10.23;;
77202;SDS011;66327;50.096;8.498;2024-01-30T08:19:41;21.08;;;11.07;;
77202;SDS011;66327;50.096;8.498;2024-01-30T08:22:08;19.35;;;10.35;;
77202;SDS011;66327;50.096;8.498;2024-01-30T08:24:34;27.73;;;12.48;;
77202;SDS011;66327;50.096;8.498;2024-01-30T08:27:00;23.38;;;11.10;;
77202;SDS011;66327;50.096;8.498;2024-01-30T08:29:28;22.90;;;12.40;;
77202;SDS011;66327;50.096;8.498;2024-01-30T08:31:55;23.83;;;11.20;;
77202;SDS011;66327;50.096;8.498;2024-01-30T08:34:21;21.70;;;10.98;;
77202;SDS011;66327;50.096;8.498;2024-01-30T08:36:50;21.08;;;10.50;;
77202;SDS011;66327;50.096;8.498;2024-01-30T08:39:18;21.17;;;11.23;;
77202;SDS011;66327;50.096;8.498;2024-01-30T08:41:47;21.83;;;11.63;;
77202;SDS011;66327;50.096;8.498;2024-01-30T08:44:14;18.23;;;10.27;;
77202;SDS011;66327;50.096;8.498;2024-01-30T08:46:40;21.83;;;10.52;;
77202;SDS011;66327;50.096;8.498;2024-01-30T08:49:06;20.20;;;10.88;;
77202;SDS011;66327;50.096;8.498;2024-01-30T08:51:33;18.42;;;9.48;;
77202;SDS011;66327;50.096;8.498;2024-01-30T08:54:00;18.60;;;9.40;;
77202;SDS011;66327;50.096;8.498;2024-01-30T08:56:27;20.40;;;10.07;;
77202;SDS011;66327;50.096;8.498;2024-01-30T08:58:53;23.73;;;10.65;;
77202;SDS011;66327;50.096;8.498;2024-01-30T09:01:20;19.70;;;11.55;;
77202;SDS011;66327;50.096;8.498;2024-01-30T09:03:47;22.58;;;10.38;;
77202;SDS011;66327;50.096;8.498;2024-01-30T09:06:13;19.40;;;10.70;;
77202;SDS011;66327;50.096;8.498;2024-01-30T09:08:39;17.17;;;9.52;;
77202;SDS011;66327;50.096;8.498;2024-01-30T09:11:09;19.05;;;10.13;;
77202;SDS011;66327;50.096;8.498;2024-01-30T09:13:36;18.08;;;8.57;;
77202;SDS011;66327;50.096;8.498;2024-01-30T09:16:03;13.77;;;7.38;;
77202;SDS011;66327;50.096;8.498;2024-01-30T09:18:30;23.98;;;10.85;;
77202;SDS011;66327;50.096;8.498;2024-01-30T09:20:56;20.35;;;9.70;;
77202;SDS011;66327;50.096;8.498;2024-01-30T09:23:23;23.35;;;11.32;;
77202;SDS011;66327;50.096;8.498;2024-01-30T09:25:49;17.90;;;9.50;;
77202;SDS011;66327;50.096;8.498;2024-01-30T09:28:17;25.48;;;10.40;;
77202;SDS011;66327;50.096;8.498;2024-01-30T09:30:43;15.45;;;8.45;;
77202;SDS011;66327;50.096;8.498;2024-01-30T09:33:10;20.20;;;10.15;;
77202;SDS011;66327;50.096;8.498;2024-01-30T09:35:36;23.00;;;11.52;;
77202;SDS011;66327;50.096;8.498;2024-01-30T09:38:03;19.38;;;10.50;;
77202;SDS011;66327;50.096;8.498;2024-01-30T09:40:29;20.33;;;10.75;;
77202;SDS011;66327;50.096;8.498;2024-01-30T09:42:56;22.60;;;12.07;;
77202;SDS011;66327;50.096;8.498;2024-01-30T09:45:25;21.10;;;11.27;;
77202;SDS011;66327;50.096;8.498;2024-01-30T09:47:52;22.13;;;11.75;;
77202;SDS011;66327;50.096;8.498;2024-01-30T09:50:19;19.00;;;11.27;;
77202;SDS011;66327;50.096;8.498;2024-01-30T09:52:46;20.13;;;10.88;;
77202;SDS011;66327;50.096;8.498;2024-01-30T09:55:13;24.63;;;12.35;;
77202;SDS011;66327;50.096;8.498;2024-01-30T09:57:41;18.02;;;10.43;;
77202;SDS011;66327;50.096;8.498;2024-01-30T10:00:07;25.50;;;12.93;;
77202;SDS011;66327;50.096;8.498;2024-01-30T10:02:35;24.75;;;12.48;;
77202;SDS011;66327;50.096;8.498;2024-01-30T10:05:02;23.58;;;11.57;;
77202;SDS011;66327;50.096;8.498;2024-01-30T10:07:28;21.23;;;10.98;;
77202;SDS011;66327;50.096;8.498;2024-01-30T10:09:56;23.17;;;12.60;;
77202;SDS011;66327;50.096;8.498;2024-01-30T10:12:23;23.42;;;12.75;;
77202;SDS011;66327;50.096;8.498;2024-01-30T10:14:49;22.60;;;11.65;;
77202;SDS011;66327;50.096;8.498;2024-01-30T10:17:16;24.75;;;12.25;;
77202;SDS011;66327;50.096;8.498;2024-01-30T10:19:53;24.15;;;12.85;;
77202;SDS011;66327;50.096;8.498;2024-01-30T10:22:20;20.40;;;11.95;;
77202;SDS011;66327;50.096;8.498;2024-01-30T10:24:46;23.42;;;12.65;;
77202;SDS011;66327;50.096;8.498;2024-01-30T10:27:14;22.33;;;11.90;;
77202;SDS011;66327;50.096;8.498;2024-01-30T10:29:40;23.70;;;12.15;;
77202;SDS011;66327;50.096;8.498;2024-01-30T10:32:07;29.38;;;13.00;;
77202;SDS011;66327;50.096;8.498;2024-01-30T10:34:33;23.52;;;11.52;;
77202;SDS011;66327;50.096;8.498;2024-01-30T10:39:28;22.38;;;11.65;;
77202;SDS011;66327;50.096;8.498;2024-01-30T10:41:55;28.95;;;13.00;;
77202;SDS011;66327;50.096;8.498;2024-01-30T10:44:22;24.27;;;7.22;;
77202;SDS011;66327;50.096;8.498;2024-01-30T10:46:50;21.20;;;9.40;;
77202;SDS011;66327;50.096;8.498;2024-01-30T10:49:17;13.60;;;8.95;;
77202;SDS011;66327;50.096;8.498;2024-01-30T10:51:44;22.50;;;11.25;;
77202;SDS011;66327;50.096;8.498;2024-01-30T10:54:11;22.95;;;12.20;;
77202;SDS011;66327;50.096;8.498;2024-01-30T10:56:38;11.57;;;7.40;;
77202;SDS011;66327;50.096;8.498;2024-01-30T10:59:05;21.45;;;11.35;;
77202;SDS011;66327;50.096;8.498;2024-01-30T11:01:35;16.98;;;8.70;;
77202;SDS011;66327;50.096;8.498;2024-01-30T11:04:02;20.05;;;10.95;;
77202;SDS011;66327;50.096;8.498;2024-01-30T11:06:29;22.92;;;12.18;;
77202;SDS011;66327;50.096;8.498;2024-01-30T11:09:02;19.27;;;11.93;;
77202;SDS011;66327;50.096;8.498;2024-01-30T11:11:31;18.05;;;9.80;;
77202;SDS011;66327;50.096;8.498;2024-01-30T11:14:01;19.70;;;11.68;;
77202;SDS011;66327;50.096;8.498;2024-01-30T11:16:32;18.80;;;9.95;;
77202;SDS011;66327;50.096;8.498;2024-01-30T11:19:00;22.17;;;11.77;;
77202;SDS011;66327;50.096;8.498;2024-01-30T11:21:27;21.83;;;12.10;;
77202;SDS011;66327;50.096;8.498;2024-01-30T11:23:54;19.23;;;11.65;;
77202;SDS011;66327;50.096;8.498;2024-01-30T11:26:23;23.05;;;12.40;;
77202;SDS011;66327;50.096;8.498;2024-01-30T11:28:52;20.05;;;11.20;;
77202;SDS011;66327;50.096;8.498;2024-01-30T11:31:19;17.88;;;9.68;;
77202;SDS011;66327;50.096;8.498;2024-01-30T11:33:45;14.45;;;7.65;;
77202;SDS011;66327;50.096;8.498;2024-01-30T11:36:12;23.30;;;11.07;;
77202;SDS011;66327;50.096;8.498;2024-01-30T11:38:39;19.35;;;10.93;;
77202;SDS011;66327;50.096;8.498;2024-01-30T11:41:07;18.48;;;10.55;;
77202;SDS011;66327;50.096;8.498;2024-01-30T11:43:34;21.73;;;9.93;;
77202;SDS011;66327;50.096;8.498;2024-01-30T11:46:01;17.48;;;10.40;;
77202;SDS011;66327;50.096;8.498;2024-01-30T11:48:27;15.77;;;7.47;;
77202;SDS011;66327;50.096;8.498;2024-01-30T11:50:54;15.50;;;10.05;;
77202;SDS011;66327;50.096;8.498;2024-01-30T11:53:20;18.20;;;9.88;;
77202;SDS011;66327;50.096;8.498;2024-01-30T11:55:51;23.17;;;11.75;;
77202;SDS011;66327;50.096;8.498;2024-01-30T11:58:25;18.90;;;10.73;;
77202;SDS011;66327;50.096;8.498;2024-01-30T12:00:54;22.48;;;12.60;;
77202;SDS011;66327;50.096;8.498;2024-01-30T12:03:23;21.23;;;11.20;;
77202;SDS011;66327;50.096;8.498;2024-01-30T12:05:56;20.33;;;11.48;;
77202;SDS011;66327;50.096;8.498;2024-01-30T12:08:25;21.52;;;11.90;;
77202;SDS011;66327;50.096;8.498;2024-01-30T12:10:55;16.55;;;9.52;;
77202;SDS011;66327;50.096;8.498;2024-01-30T12:13:23;18.40;;;10.38;;
77202;SDS011;66327;50.096;8.498;2024-01-30T12:15:57;23.48;;;12.77;;
77202;SDS011;66327;50.096;8.498;2024-01-30T12:18:26;21.13;;;12.20;;
77202;SDS011;66327;50.096;8.498;2024-01-30T12:20:58;23.33;;;11.80;;
77202;SDS011;66327;50.096;8.498;2024-01-30T12:23:27;24.67;;;12.50;;
77202;SDS011;66327;50.096;8.498;2024-01-30T12:25:57;16.80;;;10.90;;
77202;SDS011;66327;50.096;8.498;2024-01-30T12:28:25;23.60;;;11.90;;
77202;SDS011;66327;50.096;8.498;2024-01-30T12:31:02;19.85;;;10.90;;
77202;SDS011;66327;50.096;8.498;2024-01-30T12:33:30;23.85;;;12.00;;
77202;SDS011;66327;50.096;8.498;2024-01-30T12:36:01;19.15;;;11.43;;
77202;SDS011;66327;50.096;8.498;2024-01-30T12:38:29;20.98;;;11.48;;
77202;SDS011;66327;50.096;8.498;2024-01-30T12:40:57;19.73;;;11.27;;
77202;SDS011;66327;50.096;8.498;2024-01-30T12:43:26;20.80;;;10.95;;
77202;SDS011;66327;50.096;8.498;2024-01-30T12:46:05;23.17;;;11.02;;
77202;SDS011;66327;50.096;8.498;2024-01-30T12:48:33;20.23;;;11.18;;
77202;SDS011;66327;50.096;8.498;2024-01-30T12:51:01;18.15;;;10.10;;
77202;SDS011;66327;50.096;8.498;2024-01-30T12:53:27;18.00;;;10.07;;
77202;SDS011;66327;50.096;8.498;2024-01-30T12:55:55;15.02;;;7.75;;
77202;SDS011;66327;50.096;8.498;2024-01-30T12:58:23;16.83;;;10.30;;
77202;SDS011;66327;50.096;8.498;2024-01-30T13:00:51;16.60;;;9.45;;
77202;SDS011;66327;50.096;8.498;2024-01-30T13:03:19;9.43;;;5.90;;
77202;SDS011;66327;50.096;8.498;2024-01-30T13:05:49;15.82;;;9.63;;
77202;SDS011;66327;50.096;8.498;2024-01-30T13:08:18;20.23;;;9.38;;
77202;SDS011;66327;50.096;8.498;2024-01-30T13:13:16;17.63;;;9.90;;
77202;SDS011;66327;50.096;8.498;2024-01-30T13:15:47;14.77;;;7.07;;
77202;SDS011;66327;50.096;8.498;2024-01-30T13:18:14;16.40;;;10.30;;
77202;SDS011;66327;50.096;8.498;2024-01-30T13:20:45;15.40;;;9.15;;
77202;SDS011;66327;50.096;8.498;2024-01-30T13:23:19;13.93;;;5.78;;
77202;SDS011;66327;50.096;8.498;2024-01-30T13:25:47;21.05;;;10.48;;
77202;SDS011;66327;50.096;8.498;2024-01-30T13:28:13;15.80;;;8.90;;
77202;SDS011;66327;50.096;8.498;2024-01-30T13:30:40;17.65;;;10.82;;
77202;SDS011;66327;50.096;8.498;2024-01-30T13:33:06;17.20;;;10.07;;
77202;SDS011;66327;50.096;8.498;2024-01-30T13:35:32;17.40;;;9.82;;
77202;SDS011;66327;50.096;8.498;2024-01-30T13:37:59;22.45;;;11.27;;
77202;SDS011;66327;50.096;8.498;2024-01-30T13:40:28;14.93;;;9.70;;
77202;SDS011;66327;50.096;8.498;2024-01-30T13:42:54;17.85;;;10.02;;
77202;SDS011;66327;50.096;8.498;2024-01-30T13:45:21;19.50;;;11.15;;
77202;SDS011;66327;50.096;8.498;2024-01-30T13:47:49;21.25;;;10.85;;
77202;SDS011;66327;50.096;8.498;2024-01-30T13:50:15;17.77;;;10.48;;
77202;SDS011;66327;50.096;8.498;2024-01-30T13:52:43;19.67;;;11.63;;
77202;SDS011;66327;50.096;8.498;2024-01-30T13:55:11;16.95;;;10.20;;
77202;SDS011;66327;50.096;8.498;2024-01-30T13:57:38;17.10;;;9.57;;
77202;SDS011;66327;50.096;8.498;2024-01-30T14:00:05;22.05;;;10.68;;
77202;SDS011;66327;50.096;8.498;2024-01-30T14:02:32;18.98;;;10.93;;
77202;SDS011;66327;50.096;8.498;2024-01-30T14:04:59;19.63;;;11.20;;
77202;SDS011;66327;50.096;8.498;2024-01-30T14:07:25;17.60;;;9.45;;
77202;SDS011;66327;50.096;8.498;2024-01-30T14:09:52;22.80;;;11.75;;
77202;SDS011;66327;50.096;8.498;2024-01-30T14:12:18;16.55;;;10.77;;
77202;SDS011;66327;50.096;8.498;2024-01-30T14:14:45;20.02;;;11.07;;
77202;SDS011;66327;50.096;8.498;2024-01-30T14:17:11;24.15;;;11.15;;
77202;SDS011;66327;50.096;8.498;2024-01-30T14:19:38;21.23;;;10.85;;
77202;SDS011;66327;50.096;8.498;2024-01-30T14:22:04;20.15;;;10.52;;
77202;SDS011;66327;50.096;8.498;2024-01-30T14:24:31;19.55;;;11.02;;
77202;SDS011;66327;50.096;8.498;2024-01-30T14:26:57;20.25;;;11.20;;
77202;SDS011;66327;50.096;8.498;2024-01-30T14:29:23;21.88;;;10.68;;
77202;SDS011;66327;50.096;8.498;2024-01-30T14:31:50;17.85;;;10.20;;
77202;SDS011;66327;50.096;8.498;2024-01-30T14:34:16;16.17;;;8.13;;